Saint-Noel, Canada
Current Conditions -  °F | °C
As of 10:00 PM on Saturday 24 Jan 2015 (Local Time) from CYYY Reporting Station
Light Snow Light Snow  
Wind Chill: 28°   Ceiling: 2000
Heat Index: 28°   Visibility: 10mi
Dew Point: 23°   Wind: 3mph
Humidity: 80%   Direction: 120°ESE
Pressure: 29.19"   Gusts: NA
Location:  48.58°N, 67.83°W
Report Text: CYYY 250300Z 12003KT 10SM -SN OVC020 M02/M05 A2919 RMK SC8 PRESFR SLP889
Loading
Personal Weather Stations






























Interactive Weather Map New forecast layout! Learn more

10-Day Weather Forecast

Advertisements
Track Severe Weather on mobile